createdAt,value
2022-10-21T00:00:32.702Z,15.50
2022-10-21T00:02:59.312Z,15.50
2022-10-21T00:05:25.858Z,15.50
2022-10-21T00:07:52.527Z,15.50
2022-10-21T00:10:19.741Z,15.40
2022-10-21T00:12:46.299Z,15.40
2022-10-21T00:15:13.634Z,15.40
2022-10-21T00:17:43.191Z,15.40
2022-10-21T00:20:12.142Z,15.40
2022-10-21T00:22:39.511Z,15.30
2022-10-21T00:25:06.908Z,15.30
2022-10-21T00:27:33.570Z,15.30
2022-10-21T00:30:00.226Z,15.30
2022-10-21T00:32:26.957Z,15.40
2022-10-21T00:34:53.574Z,15.30
2022-10-21T00:37:20.138Z,15.30
2022-10-21T00:39:46.789Z,15.30
2022-10-21T00:42:20.146Z,15.20
2022-10-21T00:45:23.789Z,15.20
2022-10-21T00:48:19.392Z,15.30
2022-10-21T00:50:58.763Z,15.30
2022-10-21T00:53:26.418Z,15.30
2022-10-21T00:56:00.779Z,15.40
2022-10-21T00:58:31.339Z,15.30
2022-10-21T01:01:00.618Z,15.30
2022-10-21T01:03:29.638Z,15.30
2022-10-21T01:06:00.188Z,15.30
2022-10-21T01:08:28.429Z,15.30
2022-10-21T01:10:55.763Z,15.30
2022-10-21T01:13:45.054Z,15.30
2022-10-21T01:16:23.084Z,15.30
2022-10-21T01:19:16.057Z,15.30
2022-10-21T01:22:33.665Z,15.30
2022-10-21T01:25:00.184Z,15.30
2022-10-21T01:27:48.269Z,15.30
2022-10-21T01:30:38.148Z,15.30
2022-10-21T01:33:37.331Z,15.40
2022-10-21T01:36:46.134Z,15.30
2022-10-21T01:39:27.899Z,15.30
2022-10-21T01:42:20.210Z,15.30
2022-10-21T01:44:58.991Z,15.30
2022-10-21T01:47:33.942Z,15.30
2022-10-21T01:50:13.515Z,15.30
2022-10-21T01:52:43.914Z,15.40
2022-10-21T01:55:15.469Z,15.30
2022-10-21T01:57:46.155Z,15.30
2022-10-21T02:00:13.483Z,15.40
2022-10-21T02:02:45.686Z,15.40
2022-10-21T02:05:39.491Z,15.40
2022-10-21T02:08:06.472Z,15.40
2022-10-21T02:10:38.729Z,15.40
2022-10-21T02:13:08.603Z,15.40
2022-10-21T02:15:37.665Z,15.50
2022-10-21T02:18:10.348Z,15.50
2022-10-21T02:20:42.316Z,15.50
2022-10-21T02:23:13.316Z,15.50
2022-10-21T02:25:42.304Z,15.50
2022-10-21T02:28:09.505Z,15.50
2022-10-21T02:30:45.628Z,15.50
2022-10-21T02:33:41.948Z,15.50
2022-10-21T02:36:17.156Z,15.50
2022-10-21T02:38:55.047Z,15.50
2022-10-21T02:41:24.767Z,15.50
2022-10-21T02:43:59.129Z,15.50
2022-10-21T02:46:26.499Z,15.50
2022-10-21T02:48:53.612Z,15.40
2022-10-21T02:51:20.205Z,15.40
2022-10-21T02:53:46.843Z,15.40
2022-10-21T02:56:13.385Z,15.40
2022-10-21T02:58:39.971Z,15.40
2022-10-21T03:01:06.645Z,15.40
2022-10-21T03:03:33.995Z,15.40
2022-10-21T03:06:00.784Z,15.40
2022-10-21T03:08:27.498Z,15.40
2022-10-21T03:10:54.651Z,15.40
2022-10-21T03:13:22.200Z,15.30
2022-10-21T03:15:50.083Z,15.40
2022-10-21T03:18:17.015Z,15.40
2022-10-21T03:20:43.939Z,15.40
2022-10-21T03:23:10.624Z,15.40
2022-10-21T03:25:37.163Z,15.40
2022-10-21T03:28:03.912Z,15.40
2022-10-21T03:30:30.519Z,15.40
2022-10-21T03:32:57.092Z,15.40
2022-10-21T03:35:23.709Z,15.40
2022-10-21T03:37:50.339Z,15.40
2022-10-21T03:40:17.064Z,15.40
2022-10-21T03:42:43.641Z,15.30
2022-10-21T03:45:11.238Z,15.20
2022-10-21T03:47:38.007Z,15.20
2022-10-21T03:50:08.885Z,15.30
2022-10-21T03:52:39.369Z,15.30
2022-10-21T03:55:06.802Z,15.30
2022-10-21T03:57:33.525Z,15.30
2022-10-21T04:00:00.506Z,15.40
2022-10-21T04:02:27.272Z,15.30
2022-10-21T04:04:53.821Z,15.30
2022-10-21T04:07:20.402Z,15.30
2022-10-21T04:09:47.012Z,15.30
2022-10-21T04:12:13.725Z,15.30
2022-10-21T04:14:40.404Z,15.20
2022-10-21T04:17:07.805Z,15.20
2022-10-21T04:19:34.611Z,15.20
2022-10-21T04:22:01.184Z,15.20
2022-10-21T04:24:27.802Z,15.20
2022-10-21T04:26:54.532Z,15.10
2022-10-21T04:29:21.159Z,15.20
2022-10-21T04:31:47.780Z,15.20
2022-10-21T04:34:14.494Z,15.20
2022-10-21T04:36:41.105Z,15.20
2022-10-21T04:39:07.799Z,15.20
2022-10-21T04:41:34.510Z,15.30
2022-10-21T04:44:02.430Z,15.30
2022-10-21T04:46:29.041Z,15.20
2022-10-21T04:48:55.687Z,15.20
2022-10-21T04:51:22.316Z,15.20
2022-10-21T04:53:49.064Z,15.20
2022-10-21T04:56:15.721Z,15.20
2022-10-21T04:58:42.320Z,15.10
2022-10-21T05:01:08.959Z,15.10
2022-10-21T05:03:35.682Z,15.10
2022-10-21T05:06:02.284Z,15.10
2022-10-21T05:08:28.941Z,15.00
2022-10-21T05:11:00.303Z,15.00
2022-10-21T05:13:28.345Z,15.00
2022-10-21T05:15:59.541Z,15.10
2022-10-21T05:18:26.567Z,15.10
2022-10-21T05:20:54.208Z,15.10
2022-10-21T05:23:21.418Z,15.10
2022-10-21T05:25:48.639Z,15.10
2022-10-21T05:28:15.349Z,15.10
2022-10-21T05:33:08.514Z,15.10
2022-10-21T05:35:35.526Z,15.00
2022-10-21T05:38:02.527Z,15.00
2022-10-21T05:40:29.221Z,14.90
2022-10-21T05:42:55.815Z,15.00
2022-10-21T05:45:22.574Z,15.00
2022-10-21T05:47:49.196Z,15.00
2022-10-21T05:50:16.152Z,15.00
2022-10-21T05:52:42.774Z,15.00
2022-10-21T05:55:09.573Z,15.00
2022-10-21T05:57:38.206Z,15.00
2022-10-21T06:00:06.447Z,14.90
2022-10-21T06:02:33.688Z,15.00
2022-10-21T06:05:00.247Z,15.00
2022-10-21T06:07:26.977Z,15.00
2022-10-21T06:09:54.861Z,14.90
2022-10-21T06:12:22.049Z,14.90
2022-10-21T06:14:48.732Z,14.80
2022-10-21T06:17:15.522Z,14.80
2022-10-21T06:19:44.854Z,14.80
2022-10-21T06:22:14.625Z,14.90
2022-10-21T06:24:41.203Z,14.90
2022-10-21T06:27:08.512Z,15.00
2022-10-21T06:29:35.129Z,14.90
2022-10-21T06:32:01.928Z,15.00
2022-10-21T06:34:28.514Z,15.00
2022-10-21T06:36:55.150Z,15.00
2022-10-21T06:39:21.773Z,15.00
2022-10-21T06:41:48.335Z,15.10
2022-10-21T06:44:14.936Z,15.10
2022-10-21T06:46:41.496Z,15.10
2022-10-21T06:49:08.056Z,15.20
2022-10-21T06:51:34.756Z,15.20
2022-10-21T06:54:01.370Z,15.20
2022-10-21T06:56:28.798Z,15.30
2022-10-21T06:58:58.086Z,15.30
2022-10-21T07:01:34.487Z,15.30
2022-10-21T07:04:09.138Z,15.30
2022-10-21T07:06:36.449Z,15.30
2022-10-21T07:09:04.577Z,15.20
2022-10-21T07:11:31.398Z,15.20
2022-10-21T07:13:59.541Z,15.20
2022-10-21T07:16:31.712Z,15.20
2022-10-21T07:18:58.427Z,15.30
2022-10-21T07:21:27.040Z,15.30
2022-10-21T07:23:56.686Z,15.30
2022-10-21T07:26:27.581Z,15.20
2022-10-21T07:28:58.004Z,15.20
2022-10-21T07:31:24.840Z,15.20
2022-10-21T07:33:52.892Z,15.20
2022-10-21T07:36:21.308Z,15.20
2022-10-21T07:38:49.544Z,15.20
2022-10-21T07:41:20.819Z,15.20
2022-10-21T07:43:47.711Z,15.30
2022-10-21T07:46:14.689Z,15.20
2022-10-21T07:48:41.295Z,15.30
2022-10-21T07:51:11.064Z,15.30
2022-10-21T07:53:39.121Z,15.40
2022-10-21T07:56:15.756Z,15.40
2022-10-21T07:58:43.594Z,15.50
2022-10-21T08:01:11.324Z,15.60
2022-10-21T08:03:38.516Z,15.50
2022-10-21T08:06:07.955Z,15.50
2022-10-21T08:08:35.181Z,15.50
2022-10-21T08:11:03.226Z,15.40
2022-10-21T08:13:31.836Z,15.40
2022-10-21T08:15:59.438Z,15.40
2022-10-21T08:18:26.855Z,15.40
2022-10-21T08:20:54.411Z,15.40
2022-10-21T08:23:22.687Z,15.40
2022-10-21T08:25:53.282Z,15.40
2022-10-21T08:28:21.190Z,15.40
2022-10-21T08:30:51.561Z,15.40
2022-10-21T08:33:19.113Z,15.40
2022-10-21T08:35:45.816Z,15.40
2022-10-21T08:38:12.508Z,15.50
2022-10-21T08:40:44.338Z,15.50
2022-10-21T08:43:31.531Z,15.50
2022-10-21T08:46:01.396Z,15.50
2022-10-21T08:48:37.423Z,15.40
2022-10-21T08:51:07.095Z,15.40
2022-10-21T08:53:39.432Z,15.30
2022-10-21T08:56:15.766Z,15.30
2022-10-21T08:58:49.534Z,15.40
2022-10-21T09:01:47.919Z,15.40
2022-10-21T09:04:27.883Z,15.40
2022-10-21T09:07:09.924Z,15.40
2022-10-21T09:09:49.574Z,15.40
2022-10-21T09:12:33.639Z,15.50
2022-10-21T09:15:11.481Z,15.50
2022-10-21T09:17:54.105Z,15.50
2022-10-21T09:20:33.231Z,15.60
2022-10-21T09:23:21.421Z,15.60
2022-10-21T09:26:10.188Z,15.60
2022-10-21T09:28:37.162Z,15.60
2022-10-21T09:31:15.324Z,15.70
2022-10-21T09:33:47.000Z,15.70
2022-10-21T09:36:25.325Z,15.80
2022-10-21T09:39:05.534Z,15.80
2022-10-21T09:41:42.696Z,15.90
2022-10-21T09:44:21.854Z,15.90
2022-10-21T09:46:50.027Z,15.90
2022-10-21T09:52:21.742Z,15.90
2022-10-21T09:54:48.746Z,15.90
2022-10-21T09:57:59.888Z,15.90
2022-10-21T10:00:49.883Z,16.00
2022-10-21T10:03:41.201Z,16.00
2022-10-21T10:06:08.625Z,16.10
2022-10-21T10:08:40.089Z,16.10
2022-10-21T10:11:09.753Z,16.10
2022-10-21T10:13:50.212Z,16.20
2022-10-21T10:16:22.598Z,16.20
2022-10-21T10:18:51.857Z,16.20
2022-10-21T10:21:21.024Z,16.30
2022-10-21T10:23:53.962Z,16.20
2022-10-21T10:26:32.996Z,16.30
2022-10-21T10:29:10.716Z,16.30
2022-10-21T10:31:38.460Z,16.30
2022-10-21T10:34:08.273Z,16.40
2022-10-21T10:36:38.298Z,16.30
2022-10-21T10:39:25.201Z,16.30
2022-10-21T10:41:52.754Z,16.40
2022-10-21T10:44:31.747Z,16.40
2022-10-21T10:47:00.978Z,16.50
2022-10-21T10:49:33.811Z,16.50
2022-10-21T10:52:21.052Z,16.60
2022-10-21T10:54:48.352Z,16.60
2022-10-21T10:57:29.874Z,16.50
2022-10-21T11:00:21.472Z,16.60
2022-10-21T11:03:00.878Z,16.60
2022-10-21T11:05:36.476Z,16.60
2022-10-21T11:08:10.717Z,16.60
2022-10-21T11:10:51.206Z,16.60
2022-10-21T11:13:20.101Z,16.60
2022-10-21T11:16:17.541Z,16.60
2022-10-21T11:18:56.760Z,16.60
2022-10-21T11:21:41.446Z,16.60
2022-10-21T11:24:26.087Z,16.50
2022-10-21T11:27:19.117Z,16.60
2022-10-21T11:29:52.159Z,16.60
2022-10-21T11:32:27.213Z,16.60
2022-10-21T11:35:16.036Z,16.70
2022-10-21T11:37:53.203Z,16.70
2022-10-21T11:40:25.543Z,16.80
2022-10-21T11:42:54.176Z,16.80
2022-10-21T11:45:34.596Z,16.90
2022-10-21T11:48:19.920Z,16.80
2022-10-21T11:51:14.004Z,17.00
2022-10-21T11:54:02.928Z,17.00
2022-10-21T11:56:43.071Z,17.00
2022-10-21T11:59:33.414Z,17.10
2022-10-21T12:02:22.169Z,17.10
2022-10-21T12:05:04.814Z,17.10
2022-10-21T12:07:51.283Z,17.20
2022-10-21T12:10:30.768Z,17.30
2022-10-21T12:13:04.636Z,17.30
2022-10-21T12:15:41.106Z,17.40
2022-10-21T12:18:16.487Z,17.40
2022-10-21T12:20:47.860Z,17.40
2022-10-21T12:23:18.961Z,17.40
2022-10-21T12:26:03.828Z,17.40
2022-10-21T12:28:42.842Z,17.30
2022-10-21T12:31:28.808Z,17.40
2022-10-21T12:33:56.026Z,17.30
2022-10-21T12:36:23.000Z,17.40
2022-10-21T12:38:57.495Z,17.40
2022-10-21T12:41:24.146Z,17.50
2022-10-21T12:44:03.288Z,17.50
2022-10-21T12:46:44.554Z,17.50
2022-10-21T12:49:46.844Z,17.60
2022-10-21T12:52:24.219Z,17.60
2022-10-21T12:54:59.622Z,17.60
2022-10-21T12:57:35.875Z,17.70
2022-10-21T13:00:26.978Z,17.70
2022-10-21T13:03:08.960Z,17.70
2022-10-21T13:05:38.660Z,17.70
2022-10-21T13:08:21.058Z,17.70
2022-10-21T13:11:23.001Z,17.70
2022-10-21T13:14:18.284Z,17.80
2022-10-21T13:16:45.279Z,17.70
2022-10-21T13:19:18.002Z,17.80
2022-10-21T13:21:50.044Z,17.80
2022-10-21T13:24:25.897Z,17.80
2022-10-21T13:26:52.417Z,17.80
2022-10-21T13:29:37.479Z,17.80
2022-10-21T13:32:31.335Z,17.80
2022-10-21T13:35:35.514Z,17.80
2022-10-21T13:38:24.372Z,17.80
2022-10-21T13:41:04.770Z,17.80
2022-10-21T13:43:47.497Z,17.80
2022-10-21T13:46:16.284Z,17.80
2022-10-21T13:48:45.577Z,17.80
2022-10-21T13:51:21.607Z,17.80
2022-10-21T13:53:49.470Z,17.90
2022-10-21T13:56:22.582Z,17.80
2022-10-21T13:58:50.075Z,17.80
2022-10-21T14:01:25.171Z,17.80
2022-10-21T14:03:53.001Z,17.80
2022-10-21T14:06:31.543Z,17.90
2022-10-21T14:09:04.779Z,17.90
2022-10-21T14:11:37.234Z,17.80
2022-10-21T14:14:08.324Z,17.80
2022-10-21T14:16:39.392Z,17.70
2022-10-21T14:19:09.855Z,17.70
2022-10-21T14:21:39.285Z,17.70
2022-10-21T14:24:06.369Z,17.60
2022-10-21T14:26:33.641Z,17.60
2022-10-21T14:29:01.124Z,17.60
2022-10-21T14:31:28.164Z,17.60
2022-10-21T14:33:55.163Z,17.60
2022-10-21T14:36:24.983Z,17.60
2022-10-21T14:39:06.480Z,17.60
2022-10-21T14:41:36.969Z,17.60
2022-10-21T14:44:12.885Z,17.60
2022-10-21T14:46:44.853Z,17.60
2022-10-21T14:49:25.323Z,17.70
2022-10-21T14:51:58.960Z,17.60
2022-10-21T14:54:32.383Z,17.60
2022-10-21T14:57:01.245Z,17.70
2022-10-21T14:59:38.648Z,17.70
2022-10-21T15:02:10.277Z,17.60
2022-10-21T15:04:52.420Z,17.60
2022-10-21T15:07:39.410Z,17.60
2022-10-21T15:10:05.960Z,17.50
2022-10-21T15:12:39.089Z,17.40
2022-10-21T15:15:41.318Z,17.40
2022-10-21T15:18:31.896Z,17.30
2022-10-21T15:21:04.739Z,17.30
2022-10-21T15:23:38.888Z,17.30
2022-10-21T15:26:26.839Z,17.30
2022-10-21T15:28:54.809Z,17.40
2022-10-21T15:31:24.691Z,17.40
2022-10-21T15:33:54.050Z,17.40
2022-10-21T15:36:21.071Z,17.40
2022-10-21T15:38:48.438Z,17.40
2022-10-21T15:41:24.615Z,17.40
2022-10-21T15:44:00.508Z,17.30
2022-10-21T15:46:29.410Z,17.30
2022-10-21T15:48:56.844Z,17.30
2022-10-21T15:51:23.461Z,17.30
2022-10-21T15:53:50.050Z,17.30
2022-10-21T15:56:19.203Z,17.30
2022-10-21T15:58:46.246Z,17.30
2022-10-21T16:01:15.578Z,17.30
2022-10-21T16:03:43.146Z,17.30
2022-10-21T16:06:17.943Z,17.20
2022-10-21T16:08:44.975Z,17.10
2022-10-21T16:11:18.775Z,17.20
2022-10-21T16:13:52.592Z,17.20
2022-10-21T16:16:25.213Z,17.10
2022-10-21T16:18:53.039Z,17.00
2022-10-21T16:21:21.796Z,17.00
2022-10-21T16:23:49.208Z,17.00
2022-10-21T16:26:21.820Z,17.00
2022-10-21T16:28:49.523Z,17.00
2022-10-21T16:31:16.691Z,17.00
2022-10-21T16:33:43.817Z,17.00
2022-10-21T16:36:17.726Z,17.00
2022-10-21T16:38:46.027Z,17.00
2022-10-21T16:41:18.799Z,17.00
2022-10-21T16:43:46.420Z,17.00
2022-10-21T16:46:26.362Z,17.00
2022-10-21T16:48:53.879Z,17.00
2022-10-21T16:51:23.104Z,17.00
2022-10-21T16:53:50.007Z,16.90
2022-10-21T16:56:17.106Z,17.00
2022-10-21T16:58:44.301Z,16.90
2022-10-21T17:01:15.580Z,16.90
2022-10-21T17:03:42.476Z,16.90
2022-10-21T17:06:14.443Z,16.90
2022-10-21T17:08:41.154Z,16.90
2022-10-21T17:11:17.214Z,16.90
2022-10-21T17:13:44.662Z,16.90
2022-10-21T17:16:12.274Z,16.90
2022-10-21T17:18:39.810Z,16.90
2022-10-21T17:21:06.565Z,16.90
2022-10-21T17:23:33.387Z,16.90
2022-10-21T17:26:00.033Z,16.90
2022-10-21T17:28:26.749Z,16.90
2022-10-21T17:30:53.384Z,16.80
2022-10-21T17:33:19.952Z,16.80
2022-10-21T17:35:46.634Z,16.80
2022-10-21T17:38:15.017Z,16.80
2022-10-21T17:40:41.735Z,16.70
2022-10-21T17:43:08.486Z,16.70
2022-10-21T17:45:35.268Z,16.70
2022-10-21T17:48:03.056Z,16.70
2022-10-21T17:50:29.947Z,16.70
2022-10-21T17:52:56.704Z,16.70
2022-10-21T17:55:23.793Z,16.60
2022-10-21T17:57:50.364Z,16.60
2022-10-21T18:00:17.321Z,16.50
2022-10-21T18:02:43.934Z,16.50
2022-10-21T18:05:10.706Z,16.50
2022-10-21T18:07:37.796Z,16.50
2022-10-21T18:10:06.059Z,16.50
2022-10-21T18:12:32.852Z,16.50
2022-10-21T18:14:59.495Z,16.40
2022-10-21T18:17:26.093Z,16.40
2022-10-21T18:19:52.894Z,16.40
2022-10-21T18:22:21.061Z,16.40
2022-10-21T18:24:47.846Z,16.40
2022-10-21T18:27:14.584Z,16.30
2022-10-21T18:29:41.386Z,16.30
2022-10-21T18:32:12.487Z,16.20
2022-10-21T18:34:42.375Z,16.20
2022-10-21T18:37:09.304Z,16.20
2022-10-21T18:39:35.959Z,16.20
2022-10-21T18:42:02.742Z,16.20
2022-10-21T18:44:30.301Z,16.10
2022-10-21T18:46:56.899Z,16.10
2022-10-21T18:49:23.508Z,16.10
2022-10-21T18:51:50.076Z,16.00
2022-10-21T18:54:16.829Z,16.00
2022-10-21T18:56:44.825Z,15.90
2022-10-21T18:59:12.295Z,16.00
2022-10-21T19:01:39.972Z,15.90
2022-10-21T19:04:07.050Z,16.00
2022-10-21T19:06:37.588Z,16.00
2022-10-21T19:09:13.920Z,16.00
2022-10-21T19:11:42.107Z,16.00
2022-10-21T19:14:11.399Z,16.10
2022-10-21T19:16:41.210Z,16.10
2022-10-21T19:19:08.356Z,16.10
2022-10-21T19:21:35.200Z,16.10
2022-10-21T19:24:03.196Z,16.10
2022-10-21T19:26:31.657Z,16.10
2022-10-21T19:29:13.174Z,16.10
2022-10-21T19:31:40.851Z,16.10
2022-10-21T19:34:09.368Z,16.10
2022-10-21T19:36:35.925Z,16.10
2022-10-21T19:39:02.556Z,16.10
2022-10-21T19:41:29.107Z,16.10
2022-10-21T19:43:59.657Z,16.10
2022-10-21T19:46:29.259Z,16.10
2022-10-21T19:48:56.358Z,16.10
2022-10-21T19:51:24.444Z,16.10
2022-10-21T19:53:52.315Z,16.00
2022-10-21T19:56:23.828Z,16.10
2022-10-21T19:58:54.026Z,16.10
2022-10-21T20:01:26.201Z,16.10
2022-10-21T20:03:54.177Z,16.10
2022-10-21T20:06:23.132Z,16.10
2022-10-21T20:08:50.133Z,16.10
2022-10-21T20:11:19.605Z,16.10
2022-10-21T20:13:47.621Z,16.10
2022-10-21T20:16:21.708Z,16.10
2022-10-21T20:18:49.247Z,16.10
2022-10-21T20:21:16.568Z,16.10
2022-10-21T20:23:43.416Z,16.10
2022-10-21T20:26:10.267Z,16.10
2022-10-21T20:28:37.163Z,16.10
2022-10-21T20:31:08.815Z,16.00
2022-10-21T20:33:43.879Z,16.00
2022-10-21T20:36:16.214Z,16.10
2022-10-21T20:38:43.271Z,16.10
2022-10-21T20:41:14.153Z,16.10
2022-10-21T20:43:41.836Z,16.10
2022-10-21T20:46:11.656Z,16.10
2022-10-21T20:48:43.547Z,16.10
2022-10-21T20:51:16.022Z,16.10
2022-10-21T20:56:15.324Z,16.10
2022-10-21T20:58:42.541Z,16.00
2022-10-21T21:01:10.938Z,16.00
2022-10-21T21:03:39.144Z,16.00
2022-10-21T21:06:06.942Z,16.00
2022-10-21T21:08:35.608Z,15.90
2022-10-21T21:11:07.687Z,16.00
2022-10-21T21:13:35.238Z,16.00
2022-10-21T21:16:09.927Z,16.00
2022-10-21T21:18:38.487Z,16.00
2022-10-21T21:21:14.313Z,16.00
2022-10-21T21:23:42.670Z,16.00
2022-10-21T21:26:17.572Z,16.00
2022-10-21T21:28:45.045Z,16.00
2022-10-21T21:31:13.015Z,16.00
2022-10-21T21:33:40.108Z,16.00
2022-10-21T21:36:07.287Z,16.00
2022-10-21T21:38:34.603Z,16.00
2022-10-21T21:41:02.875Z,15.90
2022-10-21T21:43:31.595Z,16.00
2022-10-21T21:45:59.055Z,16.00
2022-10-21T21:48:26.080Z,16.00
2022-10-21T21:51:03.485Z,15.90
2022-10-21T21:53:30.179Z,15.90
2022-10-21T21:56:03.152Z,15.90
2022-10-21T21:58:30.299Z,15.90
2022-10-21T22:00:56.939Z,16.00
2022-10-21T22:03:23.666Z,15.90
2022-10-21T22:05:50.210Z,16.00
2022-10-21T22:08:16.760Z,16.00
2022-10-21T22:10:43.476Z,15.90
2022-10-21T22:13:12.578Z,15.90
2022-10-21T22:15:54.392Z,15.90
2022-10-21T22:18:21.128Z,15.90
2022-10-21T22:20:47.684Z,15.90
2022-10-21T22:23:14.321Z,15.80
2022-10-21T22:25:40.909Z,15.90
2022-10-21T22:28:07.474Z,15.90
2022-10-21T22:30:34.048Z,15.80
2022-10-21T22:33:00.623Z,15.80
2022-10-21T22:35:28.142Z,15.70
2022-10-21T22:37:54.727Z,15.70
2022-10-21T22:40:21.274Z,15.70
2022-10-21T22:42:47.820Z,15.60
2022-10-21T22:45:14.646Z,15.50
2022-10-21T22:47:41.609Z,15.60
2022-10-21T22:50:08.827Z,15.50
2022-10-21T22:52:35.495Z,15.40
2022-10-21T22:55:02.163Z,15.40
2022-10-21T22:57:28.713Z,15.40
2022-10-21T22:59:55.269Z,15.40
2022-10-21T23:02:22.076Z,15.40
2022-10-21T23:04:48.622Z,15.30
2022-10-21T23:07:15.242Z,15.30
2022-10-21T23:09:41.825Z,15.20
2022-10-21T23:12:08.439Z,15.30
2022-10-21T23:14:35.048Z,15.20
2022-10-21T23:17:01.612Z,15.20
2022-10-21T23:19:28.323Z,15.10
2022-10-21T23:21:54.921Z,15.10
2022-10-21T23:24:21.513Z,15.10
2022-10-21T23:26:48.090Z,15.10
2022-10-21T23:29:14.738Z,15.10
2022-10-21T23:31:41.457Z,15.20
2022-10-21T23:34:08.067Z,15.20
2022-10-21T23:36:35.470Z,15.20
2022-10-21T23:39:02.762Z,15.30
2022-10-21T23:41:29.499Z,15.30
2022-10-21T23:43:58.762Z,15.30
2022-10-21T23:46:25.446Z,15.30
2022-10-21T23:48:52.039Z,15.30
2022-10-21T23:51:19.138Z,15.30
2022-10-21T23:53:45.751Z,15.30
2022-10-21T23:56:12.406Z,15.30
2022-10-21T23:58:39.109Z,15.30
